Terminal Aerodrome Forecast
Issued by NWS Cleveland, OH

Home | Current Version | Previous Version | Graphics & Text | Print | Product List | Glossary Off
Versions: 1 2 3 4 5 6 7 8 9 10 11 12 13 14 15 16 17 18 19 20 21

000
FTUS41 KCLE 291600 AAA
TAFCAK
TAF AMD
KCAK 291634Z 2917/3012 19014G24KT 6SM -FZRASN OVC035
     FM291900 19015G21KT 3SM -DZ BR SCT006 OVC020
      TEMPO 2921/2923 2SM -RASN OVC006
     FM292300 24012G20KT 3/4SM -SN BR OVC002
     FM300400 29012G22KT 3SM -SN BKN006 OVC012=

USA.gov is the U.S. government's official web portal to all federal, state and local government web resources and services.